< < Back
Terminal Aerodrome Forecast


Current Version              Previous Versions:   1  2  3  4  5  6  7  8  9  

Terminal Aerodrome Forecast

952
FTUS42 KGSP 061735
TAFAVL
TAF
KAVL 061735Z 0618/0718 16008KT P6SM SCT070
     FM062000 VRB05KT P6SM VCSH BKN070
     FM062200 00000KT P6SM SCT070
     FM070700 00000KT 4SM BR FEW250
     FM070900 00000KT 2SM BR FEW070
     FM071300 00000KT P6SM FEW140=



Latest METAR

458
SAUS70 KWBC 062200 RRJ
MTRAVL
METAR KAVL 062154Z 34013KT 10SM CLR 28/17 A3014 RMK AO2 LTG DSNT E
TSB08E23 SLP180 T02780167


USA.gov is the U.S. government's official web portal to all federal, state and local government web resources and services.